< < Back
Terminal Aerodrome Forecast


Current Version              Previous Versions:   1  2  3  4  5  6  7  8  9  

Terminal Aerodrome Forecast

212
FTUS42 KJAX 260500 RRA
TAFGNV
TAF
KGNV 260552Z 2606/2706 00000KT P6SM SKC
     FM261500 33005KT P6SM SKC
     FM270000 00000KT P6SM SKC=

Latest METAR

141
SAUS70 KWBC 260900 RRD
MTRGNV
METAR KGNV 260853Z AUTO 00000KT 10SM CLR 08/08 A2997 RMK AO2 SLP148
T00830078 55008


USA.gov is the U.S. government's official web portal to all federal, state and local government web resources and services.